sensor_id;sensor_type;location;lat;lon;timestamp;P1;durP1;ratioP1;P2;durP2;ratioP2
52354;SDS011;38286;51.156;17.038;2023-02-23T00:01:16;40.15;;;16.05;;
52354;SDS011;38286;51.156;17.038;2023-02-23T00:03:43;40.75;;;16.17;;
52354;SDS011;38286;51.156;17.038;2023-02-23T00:06:10;40.33;;;15.52;;
52354;SDS011;38286;51.156;17.038;2023-02-23T00:08:36;41.53;;;16.15;;
52354;SDS011;38286;51.156;17.038;2023-02-23T00:11:03;41.38;;;16.50;;
52354;SDS011;38286;51.156;17.038;2023-02-23T00:13:30;40.40;;;15.70;;
52354;SDS011;38286;51.156;17.038;2023-02-23T00:16:05;41.70;;;16.85;;
52354;SDS011;38286;51.156;17.038;2023-02-23T00:18:36;35.50;;;14.40;;
52354;SDS011;38286;51.156;17.038;2023-02-23T00:21:13;41.50;;;15.63;;
52354;SDS011;38286;51.156;17.038;2023-02-23T00:23:41;41.97;;;16.55;;
52354;SDS011;38286;51.156;17.038;2023-02-23T00:26:07;42.80;;;16.10;;
52354;SDS011;38286;51.156;17.038;2023-02-23T00:28:33;41.72;;;17.65;;
52354;SDS011;38286;51.156;17.038;2023-02-23T00:31:00;37.55;;;15.48;;
52354;SDS011;38286;51.156;17.038;2023-02-23T00:33:26;36.67;;;16.48;;
52354;SDS011;38286;51.156;17.038;2023-02-23T00:35:54;40.67;;;15.35;;
52354;SDS011;38286;51.156;17.038;2023-02-23T00:38:20;33.58;;;14.48;;
52354;SDS011;38286;51.156;17.038;2023-02-23T00:40:46;42.25;;;17.13;;
52354;SDS011;38286;51.156;17.038;2023-02-23T00:43:11;35.88;;;14.48;;
52354;SDS011;38286;51.156;17.038;2023-02-23T00:45:39;43.63;;;16.77;;
52354;SDS011;38286;51.156;17.038;2023-02-23T00:48:05;47.22;;;17.10;;
52354;SDS011;38286;51.156;17.038;2023-02-23T00:50:35;44.05;;;15.63;;
52354;SDS011;38286;51.156;17.038;2023-02-23T00:53:03;38.45;;;15.95;;
52354;SDS011;38286;51.156;17.038;2023-02-23T00:55:29;45.90;;;15.85;;
52354;SDS011;38286;51.156;17.038;2023-02-23T00:57:54;40.75;;;15.10;;
52354;SDS011;38286;51.156;17.038;2023-02-23T01:00:22;43.88;;;15.65;;
52354;SDS011;38286;51.156;17.038;2023-02-23T01:02:49;33.95;;;15.00;;
52354;SDS011;38286;51.156;17.038;2023-02-23T01:05:15;42.25;;;14.60;;
52354;SDS011;38286;51.156;17.038;2023-02-23T01:07:41;37.85;;;15.30;;
52354;SDS011;38286;51.156;17.038;2023-02-23T01:10:07;43.78;;;16.98;;
52354;SDS011;38286;51.156;17.038;2023-02-23T01:12:49;43.58;;;15.75;;
52354;SDS011;38286;51.156;17.038;2023-02-23T01:15:16;44.63;;;16.48;;
52354;SDS011;38286;51.156;17.038;2023-02-23T01:17:43;45.90;;;16.80;;
52354;SDS011;38286;51.156;17.038;2023-02-23T01:20:11;40.05;;;16.48;;
52354;SDS011;38286;51.156;17.038;2023-02-23T01:22:47;38.28;;;14.82;;
52354;SDS011;38286;51.156;17.038;2023-02-23T01:25:14;39.72;;;15.57;;
52354;SDS011;38286;51.156;17.038;2023-02-23T01:27:41;37.88;;;16.23;;
52354;SDS011;38286;51.156;17.038;2023-02-23T01:30:08;40.45;;;16.30;;
52354;SDS011;38286;51.156;17.038;2023-02-23T01:32:35;37.72;;;16.23;;
52354;SDS011;38286;51.156;17.038;2023-02-23T01:35:09;34.03;;;13.90;;
52354;SDS011;38286;51.156;17.038;2023-02-23T01:37:39;36.42;;;16.25;;
52354;SDS011;38286;51.156;17.038;2023-02-23T01:40:06;39.75;;;15.85;;
52354;SDS011;38286;51.156;17.038;2023-02-23T01:42:37;38.45;;;15.52;;
52354;SDS011;38286;51.156;17.038;2023-02-23T01:45:18;42.42;;;16.38;;
52354;SDS011;38286;51.156;17.038;2023-02-23T01:47:48;40.78;;;16.20;;
52354;SDS011;38286;51.156;17.038;2023-02-23T01:50:15;40.88;;;15.30;;
52354;SDS011;38286;51.156;17.038;2023-02-23T01:52:44;45.00;;;15.98;;
52354;SDS011;38286;51.156;17.038;2023-02-23T01:55:12;31.67;;;15.15;;
52354;SDS011;38286;51.156;17.038;2023-02-23T01:57:38;35.95;;;14.40;;
52354;SDS011;38286;51.156;17.038;2023-02-23T02:00:04;37.35;;;15.60;;
52354;SDS011;38286;51.156;17.038;2023-02-23T02:02:39;32.22;;;15.95;;
52354;SDS011;38286;51.156;17.038;2023-02-23T02:05:06;35.25;;;15.77;;
52354;SDS011;38286;51.156;17.038;2023-02-23T02:07:38;36.03;;;16.65;;
52354;SDS011;38286;51.156;17.038;2023-02-23T02:10:06;37.70;;;16.02;;
52354;SDS011;38286;51.156;17.038;2023-02-23T02:12:43;39.08;;;17.27;;
52354;SDS011;38286;51.156;17.038;2023-02-23T02:15:10;37.95;;;16.10;;
52354;SDS011;38286;51.156;17.038;2023-02-23T02:23:29;43.83;;;15.82;;
52354;SDS011;38286;51.156;17.038;2023-02-23T02:28:50;41.30;;;16.00;;
52354;SDS011;38286;51.156;17.038;2023-02-23T02:31:48;37.67;;;16.98;;
52354;SDS011;38286;51.156;17.038;2023-02-23T02:34:24;44.33;;;16.52;;
52354;SDS011;38286;51.156;17.038;2023-02-23T02:39:45;37.38;;;15.77;;
52354;SDS011;38286;51.156;17.038;2023-02-23T02:42:40;43.08;;;15.90;;
52354;SDS011;38286;51.156;17.038;2023-02-23T02:45:11;39.88;;;15.30;;
52354;SDS011;38286;51.156;17.038;2023-02-23T02:47:44;42.17;;;16.75;;
52354;SDS011;38286;51.156;17.038;2023-02-23T02:50:16;41.13;;;16.73;;
52354;SDS011;38286;51.156;17.038;2023-02-23T02:52:48;42.22;;;17.48;;
52354;SDS011;38286;51.156;17.038;2023-02-23T02:55:23;39.25;;;16.60;;
52354;SDS011;38286;51.156;17.038;2023-02-23T02:57:52;35.92;;;15.77;;
52354;SDS011;38286;51.156;17.038;2023-02-23T03:00:24;43.30;;;17.05;;
52354;SDS011;38286;51.156;17.038;2023-02-23T03:06:18;43.33;;;17.17;;
52354;SDS011;38286;51.156;17.038;2023-02-23T03:09:19;43.95;;;16.98;;
52354;SDS011;38286;51.156;17.038;2023-02-23T03:12:10;40.83;;;15.88;;
52354;SDS011;38286;51.156;17.038;2023-02-23T03:17:55;45.03;;;16.38;;
52354;SDS011;38286;51.156;17.038;2023-02-23T03:20:46;36.10;;;16.60;;
52354;SDS011;38286;51.156;17.038;2023-02-23T03:26:42;41.67;;;16.30;;
52354;SDS011;38286;51.156;17.038;2023-02-23T03:32:33;43.58;;;16.95;;
52354;SDS011;38286;51.156;17.038;2023-02-23T03:35:24;47.40;;;16.92;;
52354;SDS011;38286;51.156;17.038;2023-02-23T03:39:17;46.13;;;17.45;;
52354;SDS011;38286;51.156;17.038;2023-02-23T03:41:32;37.83;;;17.10;;
52354;SDS011;38286;51.156;17.038;2023-02-23T03:44:24;38.92;;;16.73;;
52354;SDS011;38286;51.156;17.038;2023-02-23T03:47:11;40.03;;;16.75;;
52354;SDS011;38286;51.156;17.038;2023-02-23T03:49:57;48.35;;;18.67;;
52354;SDS011;38286;51.156;17.038;2023-02-23T03:52:45;44.72;;;17.98;;
52354;SDS011;38286;51.156;17.038;2023-02-23T03:55:35;42.83;;;18.08;;
52354;SDS011;38286;51.156;17.038;2023-02-23T03:58:25;40.03;;;14.98;;
52354;SDS011;38286;51.156;17.038;2023-02-23T04:01:13;44.38;;;18.48;;
52354;SDS011;38286;51.156;17.038;2023-02-23T04:03:58;42.28;;;16.02;;
52354;SDS011;38286;51.156;17.038;2023-02-23T04:09:28;41.80;;;15.88;;
52354;SDS011;38286;51.156;17.038;2023-02-23T04:15:36;42.00;;;17.15;;
52354;SDS011;38286;51.156;17.038;2023-02-23T04:18:04;48.72;;;17.48;;
52354;SDS011;38286;51.156;17.038;2023-02-23T04:20:30;48.45;;;18.95;;
52354;SDS011;38286;51.156;17.038;2023-02-23T04:22:56;46.25;;;19.20;;
52354;SDS011;38286;51.156;17.038;2023-02-23T04:25:21;44.30;;;18.13;;
52354;SDS011;38286;51.156;17.038;2023-02-23T04:27:48;48.67;;;18.88;;
52354;SDS011;38286;51.156;17.038;2023-02-23T04:30:14;43.25;;;17.85;;
52354;SDS011;38286;51.156;17.038;2023-02-23T04:32:40;45.75;;;18.15;;
52354;SDS011;38286;51.156;17.038;2023-02-23T04:35:05;50.63;;;19.50;;
52354;SDS011;38286;51.156;17.038;2023-02-23T04:37:31;48.35;;;19.40;;
52354;SDS011;38286;51.156;17.038;2023-02-23T04:39:57;43.20;;;17.60;;
52354;SDS011;38286;51.156;17.038;2023-02-23T04:42:23;39.10;;;16.02;;
52354;SDS011;38286;51.156;17.038;2023-02-23T04:44:48;51.85;;;21.85;;
52354;SDS011;38286;51.156;17.038;2023-02-23T04:47:14;46.63;;;20.10;;
52354;SDS011;38286;51.156;17.038;2023-02-23T04:49:40;50.88;;;19.85;;
52354;SDS011;38286;51.156;17.038;2023-02-23T04:52:08;46.75;;;18.00;;
52354;SDS011;38286;51.156;17.038;2023-02-23T04:54:37;52.17;;;19.80;;
52354;SDS011;38286;51.156;17.038;2023-02-23T04:57:04;51.20;;;20.45;;
52354;SDS011;38286;51.156;17.038;2023-02-23T04:59:30;48.55;;;19.65;;
52354;SDS011;38286;51.156;17.038;2023-02-23T05:01:56;48.17;;;18.65;;
52354;SDS011;38286;51.156;17.038;2023-02-23T05:04:22;45.95;;;17.67;;
52354;SDS011;38286;51.156;17.038;2023-02-23T05:06:48;47.95;;;20.48;;
52354;SDS011;38286;51.156;17.038;2023-02-23T05:09:13;51.67;;;19.60;;
52354;SDS011;38286;51.156;17.038;2023-02-23T05:11:39;46.53;;;18.52;;
52354;SDS011;38286;51.156;17.038;2023-02-23T05:14:04;53.30;;;20.70;;
52354;SDS011;38286;51.156;17.038;2023-02-23T05:16:31;57.00;;;20.88;;
52354;SDS011;38286;51.156;17.038;2023-02-23T05:18:56;54.83;;;21.38;;
52354;SDS011;38286;51.156;17.038;2023-02-23T05:21:22;51.45;;;20.10;;
52354;SDS011;38286;51.156;17.038;2023-02-23T05:23:49;48.15;;;19.10;;
52354;SDS011;38286;51.156;17.038;2023-02-23T05:26:15;40.13;;;15.50;;
52354;SDS011;38286;51.156;17.038;2023-02-23T05:28:41;40.58;;;16.23;;
52354;SDS011;38286;51.156;17.038;2023-02-23T05:31:07;52.50;;;20.13;;
52354;SDS011;38286;51.156;17.038;2023-02-23T05:33:33;54.33;;;20.92;;
52354;SDS011;38286;51.156;17.038;2023-02-23T05:36:07;56.38;;;20.45;;
52354;SDS011;38286;51.156;17.038;2023-02-23T05:38:34;47.38;;;20.05;;
52354;SDS011;38286;51.156;17.038;2023-02-23T05:41:04;54.58;;;20.27;;
52354;SDS011;38286;51.156;17.038;2023-02-23T05:43:34;57.90;;;21.45;;
52354;SDS011;38286;51.156;17.038;2023-02-23T05:46:00;51.35;;;21.73;;
52354;SDS011;38286;51.156;17.038;2023-02-23T05:48:26;40.70;;;17.60;;
52354;SDS011;38286;51.156;17.038;2023-02-23T05:50:53;52.88;;;20.13;;
52354;SDS011;38286;51.156;17.038;2023-02-23T05:53:18;50.03;;;19.13;;
52354;SDS011;38286;51.156;17.038;2023-02-23T05:55:45;52.47;;;19.67;;
52354;SDS011;38286;51.156;17.038;2023-02-23T05:58:10;50.47;;;20.83;;
52354;SDS011;38286;51.156;17.038;2023-02-23T06:00:36;51.65;;;18.65;;
52354;SDS011;38286;51.156;17.038;2023-02-23T06:03:01;53.78;;;21.58;;
52354;SDS011;38286;51.156;17.038;2023-02-23T06:05:27;53.45;;;18.85;;
52354;SDS011;38286;51.156;17.038;2023-02-23T06:07:54;50.20;;;17.75;;
52354;SDS011;38286;51.156;17.038;2023-02-23T06:10:20;57.58;;;22.73;;
52354;SDS011;38286;51.156;17.038;2023-02-23T06:12:45;63.65;;;24.13;;
52354;SDS011;38286;51.156;17.038;2023-02-23T06:15:11;53.08;;;20.63;;
52354;SDS011;38286;51.156;17.038;2023-02-23T06:17:36;58.90;;;19.38;;
52354;SDS011;38286;51.156;17.038;2023-02-23T06:20:03;50.40;;;20.63;;
52354;SDS011;38286;51.156;17.038;2023-02-23T06:22:29;55.47;;;20.90;;
52354;SDS011;38286;51.156;17.038;2023-02-23T06:24:55;62.17;;;23.27;;
52354;SDS011;38286;51.156;17.038;2023-02-23T06:27:21;60.78;;;22.27;;
52354;SDS011;38286;51.156;17.038;2023-02-23T06:29:46;54.22;;;20.05;;
52354;SDS011;38286;51.156;17.038;2023-02-23T06:32:12;65.43;;;24.88;;
52354;SDS011;38286;51.156;17.038;2023-02-23T06:34:38;62.30;;;22.23;;
52354;SDS011;38286;51.156;17.038;2023-02-23T06:37:04;63.60;;;21.65;;
52354;SDS011;38286;51.156;17.038;2023-02-23T06:39:30;60.58;;;22.77;;
52354;SDS011;38286;51.156;17.038;2023-02-23T06:41:56;57.42;;;22.08;;
52354;SDS011;38286;51.156;17.038;2023-02-23T06:44:22;60.78;;;22.27;;
52354;SDS011;38286;51.156;17.038;2023-02-23T06:46:47;61.95;;;23.55;;
52354;SDS011;38286;51.156;17.038;2023-02-23T06:49:13;58.60;;;25.10;;
52354;SDS011;38286;51.156;17.038;2023-02-23T06:51:39;56.50;;;20.90;;
52354;SDS011;38286;51.156;17.038;2023-02-23T06:54:04;53.50;;;22.10;;
52354;SDS011;38286;51.156;17.038;2023-02-23T06:56:30;62.95;;;26.20;;
52354;SDS011;38286;51.156;17.038;2023-02-23T06:58:56;65.65;;;24.60;;
52354;SDS011;38286;51.156;17.038;2023-02-23T07:01:22;65.78;;;26.40;;
52354;SDS011;38286;51.156;17.038;2023-02-23T07:03:47;56.33;;;22.95;;
52354;SDS011;38286;51.156;17.038;2023-02-23T07:06:13;67.18;;;25.77;;
52354;SDS011;38286;51.156;17.038;2023-02-23T07:08:39;75.95;;;26.63;;
52354;SDS011;38286;51.156;17.038;2023-02-23T07:11:05;70.18;;;28.55;;
52354;SDS011;38286;51.156;17.038;2023-02-23T07:13:35;65.95;;;26.58;;
52354;SDS011;38286;51.156;17.038;2023-02-23T07:16:00;57.83;;;22.83;;
52354;SDS011;38286;51.156;17.038;2023-02-23T07:18:26;61.25;;;26.13;;
52354;SDS011;38286;51.156;17.038;2023-02-23T07:20:52;64.00;;;25.75;;
52354;SDS011;38286;51.156;17.038;2023-02-23T07:23:18;61.17;;;23.33;;
52354;SDS011;38286;51.156;17.038;2023-02-23T07:25:43;68.60;;;25.38;;
52354;SDS011;38286;51.156;17.038;2023-02-23T07:28:10;72.03;;;28.80;;
52354;SDS011;38286;51.156;17.038;2023-02-23T07:30:38;63.35;;;27.10;;
52354;SDS011;38286;51.156;17.038;2023-02-23T07:33:04;66.93;;;22.75;;
52354;SDS011;38286;51.156;17.038;2023-02-23T07:35:29;60.50;;;25.05;;
52354;SDS011;38286;51.156;17.038;2023-02-23T07:37:55;67.35;;;27.38;;
52354;SDS011;38286;51.156;17.038;2023-02-23T07:40:21;54.50;;;24.13;;
52354;SDS011;38286;51.156;17.038;2023-02-23T07:42:46;65.25;;;26.13;;
52354;SDS011;38286;51.156;17.038;2023-02-23T07:45:12;59.33;;;25.55;;
52354;SDS011;38286;51.156;17.038;2023-02-23T07:47:38;67.53;;;23.45;;
52354;SDS011;38286;51.156;17.038;2023-02-23T07:50:04;54.50;;;23.63;;
52354;SDS011;38286;51.156;17.038;2023-02-23T07:52:38;53.53;;;23.17;;
52354;SDS011;38286;51.156;17.038;2023-02-23T07:55:05;52.60;;;23.88;;
52354;SDS011;38286;51.156;17.038;2023-02-23T07:57:31;46.13;;;18.90;;
52354;SDS011;38286;51.156;17.038;2023-02-23T07:59:57;53.40;;;24.25;;
52354;SDS011;38286;51.156;17.038;2023-02-23T08:02:23;62.30;;;26.42;;
52354;SDS011;38286;51.156;17.038;2023-02-23T08:04:49;51.88;;;20.30;;
52354;SDS011;38286;51.156;17.038;2023-02-23T08:07:18;56.88;;;22.90;;
52354;SDS011;38286;51.156;17.038;2023-02-23T08:09:44;55.17;;;21.63;;
52354;SDS011;38286;51.156;17.038;2023-02-23T08:12:10;64.50;;;24.70;;
52354;SDS011;38286;51.156;17.038;2023-02-23T08:14:36;50.90;;;23.98;;
52354;SDS011;38286;51.156;17.038;2023-02-23T08:17:02;49.65;;;22.63;;
52354;SDS011;38286;51.156;17.038;2023-02-23T08:19:27;60.42;;;23.63;;
52354;SDS011;38286;51.156;17.038;2023-02-23T08:21:53;55.63;;;25.10;;
52354;SDS011;38286;51.156;17.038;2023-02-23T08:24:20;56.53;;;24.25;;
52354;SDS011;38286;51.156;17.038;2023-02-23T08:26:46;56.38;;;24.40;;
52354;SDS011;38286;51.156;17.038;2023-02-23T08:29:17;57.20;;;24.92;;
52354;SDS011;38286;51.156;17.038;2023-02-23T08:31:43;56.10;;;23.45;;
52354;SDS011;38286;51.156;17.038;2023-02-23T08:34:09;56.97;;;22.95;;
52354;SDS011;38286;51.156;17.038;2023-02-23T08:36:35;54.95;;;24.58;;
52354;SDS011;38286;51.156;17.038;2023-02-23T08:39:00;52.72;;;23.80;;
52354;SDS011;38286;51.156;17.038;2023-02-23T08:41:26;56.08;;;24.20;;
52354;SDS011;38286;51.156;17.038;2023-02-23T08:43:52;51.78;;;24.15;;
52354;SDS011;38286;51.156;17.038;2023-02-23T08:46:18;57.30;;;26.10;;
52354;SDS011;38286;51.156;17.038;2023-02-23T08:48:45;46.75;;;20.73;;
52354;SDS011;38286;51.156;17.038;2023-02-23T08:51:11;52.33;;;22.40;;
52354;SDS011;38286;51.156;17.038;2023-02-23T08:53:38;52.55;;;23.73;;
52354;SDS011;38286;51.156;17.038;2023-02-23T08:56:05;47.17;;;22.33;;
52354;SDS011;38286;51.156;17.038;2023-02-23T08:58:31;45.30;;;21.77;;
52354;SDS011;38286;51.156;17.038;2023-02-23T09:00:58;46.35;;;23.88;;
52354;SDS011;38286;51.156;17.038;2023-02-23T09:03:24;47.50;;;22.98;;
52354;SDS011;38286;51.156;17.038;2023-02-23T09:05:51;45.70;;;23.20;;
52354;SDS011;38286;51.156;17.038;2023-02-23T09:08:17;50.35;;;23.33;;
52354;SDS011;38286;51.156;17.038;2023-02-23T09:10:43;43.67;;;22.88;;
52354;SDS011;38286;51.156;17.038;2023-02-23T09:13:09;47.03;;;24.50;;
52354;SDS011;38286;51.156;17.038;2023-02-23T09:15:36;45.92;;;22.95;;
52354;SDS011;38286;51.156;17.038;2023-02-23T09:18:04;43.83;;;23.02;;
52354;SDS011;38286;51.156;17.038;2023-02-23T09:20:30;48.67;;;23.92;;
52354;SDS011;38286;51.156;17.038;2023-02-23T09:22:56;49.47;;;23.50;;
52354;SDS011;38286;51.156;17.038;2023-02-23T09:25:22;50.00;;;24.30;;
52354;SDS011;38286;51.156;17.038;2023-02-23T09:27:48;45.50;;;23.10;;
52354;SDS011;38286;51.156;17.038;2023-02-23T09:30:16;41.35;;;20.65;;
52354;SDS011;38286;51.156;17.038;2023-02-23T09:32:49;45.03;;;22.83;;
52354;SDS011;38286;51.156;17.038;2023-02-23T09:35:16;41.35;;;21.35;;
52354;SDS011;38286;51.156;17.038;2023-02-23T09:37:46;41.05;;;21.60;;
52354;SDS011;38286;51.156;17.038;2023-02-23T09:40:14;47.95;;;22.98;;
52354;SDS011;38286;51.156;17.038;2023-02-23T09:43:00;42.70;;;22.23;;
52354;SDS011;38286;51.156;17.038;2023-02-23T09:45:32;42.45;;;21.90;;
52354;SDS011;38286;51.156;17.038;2023-02-23T09:50:42;36.78;;;18.30;;
52354;SDS011;38286;51.156;17.038;2023-02-23T09:53:19;44.10;;;22.58;;
52354;SDS011;38286;51.156;17.038;2023-02-23T09:55:52;44.33;;;22.58;;
52354;SDS011;38286;51.156;17.038;2023-02-23T09:58:21;52.10;;;25.90;;
52354;SDS011;38286;51.156;17.038;2023-02-23T10:00:50;44.38;;;21.42;;
52354;SDS011;38286;51.156;17.038;2023-02-23T10:05:53;44.00;;;21.10;;
52354;SDS011;38286;51.156;17.038;2023-02-23T10:11:36;41.65;;;21.15;;
52354;SDS011;38286;51.156;17.038;2023-02-23T10:16:47;43.03;;;21.67;;
52354;SDS011;38286;51.156;17.038;2023-02-23T10:22:09;43.42;;;20.98;;
52354;SDS011;38286;51.156;17.038;2023-02-23T10:24:41;39.83;;;20.75;;
52354;SDS011;38286;51.156;17.038;2023-02-23T10:27:09;42.17;;;21.30;;
52354;SDS011;38286;51.156;17.038;2023-02-23T10:29:48;43.75;;;21.33;;
52354;SDS011;38286;51.156;17.038;2023-02-23T10:34:48;39.28;;;20.88;;
52354;SDS011;38286;51.156;17.038;2023-02-23T10:37:18;38.83;;;19.65;;
52354;SDS011;38286;51.156;17.038;2023-02-23T10:39:44;37.55;;;20.35;;
52354;SDS011;38286;51.156;17.038;2023-02-23T10:42:13;36.70;;;20.02;;
52354;SDS011;38286;51.156;17.038;2023-02-23T10:44:41;41.50;;;21.25;;
52354;SDS011;38286;51.156;17.038;2023-02-23T10:47:10;37.05;;;19.35;;
52354;SDS011;38286;51.156;17.038;2023-02-23T10:49:46;34.80;;;20.40;;
52354;SDS011;38286;51.156;17.038;2023-02-23T10:52:15;37.92;;;20.50;;
52354;SDS011;38286;51.156;17.038;2023-02-23T10:54:45;37.13;;;19.48;;
52354;SDS011;38286;51.156;17.038;2023-02-23T10:57:20;36.88;;;19.40;;
52354;SDS011;38286;51.156;17.038;2023-02-23T11:00:09;39.28;;;21.70;;
52354;SDS011;38286;51.156;17.038;2023-02-23T11:02:51;38.55;;;19.50;;
52354;SDS011;38286;51.156;17.038;2023-02-23T11:05:28;36.30;;;20.58;;
52354;SDS011;38286;51.156;17.038;2023-02-23T11:13:27;35.00;;;18.25;;
52354;SDS011;38286;51.156;17.038;2023-02-23T11:15:58;34.85;;;17.48;;
52354;SDS011;38286;51.156;17.038;2023-02-23T11:18:28;37.33;;;19.33;;
52354;SDS011;38286;51.156;17.038;2023-02-23T11:20:54;38.08;;;18.60;;
52354;SDS011;38286;51.156;17.038;2023-02-23T11:23:22;37.58;;;18.25;;
52354;SDS011;38286;51.156;17.038;2023-02-23T11:25:54;39.65;;;20.42;;
52354;SDS011;38286;51.156;17.038;2023-02-23T11:28:29;36.17;;;18.55;;
52354;SDS011;38286;51.156;17.038;2023-02-23T11:30:56;40.90;;;20.50;;
52354;SDS011;38286;51.156;17.038;2023-02-23T11:33:28;45.58;;;20.42;;
52354;SDS011;38286;51.156;17.038;2023-02-23T11:35:56;40.60;;;19.58;;
52354;SDS011;38286;51.156;17.038;2023-02-23T11:38:25;42.75;;;20.75;;
52354;SDS011;38286;51.156;17.038;2023-02-23T11:41:03;35.75;;;18.83;;
52354;SDS011;38286;51.156;17.038;2023-02-23T11:43:50;43.55;;;20.70;;
52354;SDS011;38286;51.156;17.038;2023-02-23T11:46:24;40.13;;;19.85;;
52354;SDS011;38286;51.156;17.038;2023-02-23T11:49:07;44.63;;;22.05;;
52354;SDS011;38286;51.156;17.038;2023-02-23T11:51:40;44.85;;;20.73;;
52354;SDS011;38286;51.156;17.038;2023-02-23T11:54:47;42.28;;;20.50;;
52354;SDS011;38286;51.156;17.038;2023-02-23T11:57:03;42.08;;;20.67;;
52354;SDS011;38286;51.156;17.038;2023-02-23T11:59:39;40.45;;;20.83;;
52354;SDS011;38286;51.156;17.038;2023-02-23T12:02:24;37.17;;;18.40;;
52354;SDS011;38286;51.156;17.038;2023-02-23T12:05:08;43.75;;;21.02;;
52354;SDS011;38286;51.156;17.038;2023-02-23T12:10:41;45.65;;;21.67;;
52354;SDS011;38286;51.156;17.038;2023-02-23T12:23:29;45.13;;;20.48;;
52354;SDS011;38286;51.156;17.038;2023-02-23T12:26:00;42.50;;;19.25;;
52354;SDS011;38286;51.156;17.038;2023-02-23T12:28:34;45.47;;;20.65;;
52354;SDS011;38286;51.156;17.038;2023-02-23T12:31:05;47.50;;;21.88;;
52354;SDS011;38286;51.156;17.038;2023-02-23T12:33:39;51.08;;;22.15;;
52354;SDS011;38286;51.156;17.038;2023-02-23T12:36:24;45.00;;;20.40;;
52354;SDS011;38286;51.156;17.038;2023-02-23T12:38:59;37.67;;;16.33;;
52354;SDS011;38286;51.156;17.038;2023-02-23T12:41:37;39.47;;;17.83;;
52354;SDS011;38286;51.156;17.038;2023-02-23T12:46:46;39.25;;;19.92;;
52354;SDS011;38286;51.156;17.038;2023-02-23T12:51:45;44.22;;;21.73;;
52354;SDS011;38286;51.156;17.038;2023-02-23T12:54:15;44.30;;;21.02;;
52354;SDS011;38286;51.156;17.038;2023-02-23T12:56:45;40.55;;;21.15;;
52354;SDS011;38286;51.156;17.038;2023-02-23T13:01:50;39.63;;;21.55;;
52354;SDS011;38286;51.156;17.038;2023-02-23T13:04:36;41.13;;;21.15;;
52354;SDS011;38286;51.156;17.038;2023-02-23T13:10:02;43.83;;;21.95;;
52354;SDS011;38286;51.156;17.038;2023-02-23T13:15:26;37.92;;;20.27;;
52354;SDS011;38286;51.156;17.038;2023-02-23T13:20:50;39.47;;;19.45;;
52354;SDS011;38286;51.156;17.038;2023-02-23T13:23:45;44.03;;;19.95;;
52354;SDS011;38286;51.156;17.038;2023-02-23T13:29:37;43.10;;;20.13;;
52354;SDS011;38286;51.156;17.038;2023-02-23T13:32:11;48.08;;;21.73;;
52354;SDS011;38286;51.156;17.038;2023-02-23T13:37:17;36.10;;;19.92;;
52354;SDS011;38286;51.156;17.038;2023-02-23T13:42:15;38.50;;;20.42;;
52354;SDS011;38286;51.156;17.038;2023-02-23T13:50:25;44.25;;;20.90;;
52354;SDS011;38286;51.156;17.038;2023-02-23T13:52:53;44.50;;;21.70;;
52354;SDS011;38286;51.156;17.038;2023-02-23T13:57:54;41.97;;;19.90;;
52354;SDS011;38286;51.156;17.038;2023-02-23T14:00:22;38.58;;;19.58;;
52354;SDS011;38286;51.156;17.038;2023-02-23T14:02:48;39.42;;;19.02;;
52354;SDS011;38286;51.156;17.038;2023-02-23T14:07:44;40.38;;;20.88;;
52354;SDS011;38286;51.156;17.038;2023-02-23T14:10:18;41.00;;;20.30;;
52354;SDS011;38286;51.156;17.038;2023-02-23T14:13:31;41.28;;;21.60;;
52354;SDS011;38286;51.156;17.038;2023-02-23T14:15:46;38.58;;;19.63;;
52354;SDS011;38286;51.156;17.038;2023-02-23T14:26:16;38.78;;;19.58;;
52354;SDS011;38286;51.156;17.038;2023-02-23T14:28:46;36.58;;;18.25;;
52354;SDS011;38286;51.156;17.038;2023-02-23T14:31:17;34.97;;;19.65;;
52354;SDS011;38286;51.156;17.038;2023-02-23T14:41:21;39.60;;;18.63;;
52354;SDS011;38286;51.156;17.038;2023-02-23T14:43:48;36.78;;;17.90;;
52354;SDS011;38286;51.156;17.038;2023-02-23T14:46:23;42.17;;;18.60;;
52354;SDS011;38286;51.156;17.038;2023-02-23T14:48:59;38.70;;;18.33;;
52354;SDS011;38286;51.156;17.038;2023-02-23T14:51:38;33.28;;;17.30;;
52354;SDS011;38286;51.156;17.038;2023-02-23T14:56:52;31.35;;;15.73;;
52354;SDS011;38286;51.156;17.038;2023-02-23T14:59:22;34.60;;;17.05;;
52354;SDS011;38286;51.156;17.038;2023-02-23T15:01:51;35.92;;;17.50;;
52354;SDS011;38286;51.156;17.038;2023-02-23T15:04:19;33.83;;;17.60;;
52354;SDS011;38286;51.156;17.038;2023-02-23T15:06:53;34.47;;;17.77;;
52354;SDS011;38286;51.156;17.038;2023-02-23T15:09:24;34.65;;;18.35;;
52354;SDS011;38286;51.156;17.038;2023-02-23T15:11:56;37.88;;;17.88;;
52354;SDS011;38286;51.156;17.038;2023-02-23T15:14:24;30.60;;;16.55;;
52354;SDS011;38286;51.156;17.038;2023-02-23T15:16:50;34.90;;;17.48;;
52354;SDS011;38286;51.156;17.038;2023-02-23T15:19:16;33.35;;;16.60;;
52354;SDS011;38286;51.156;17.038;2023-02-23T15:21:53;37.70;;;17.20;;
52354;SDS011;38286;51.156;17.038;2023-02-23T15:24:22;34.33;;;16.80;;
52354;SDS011;38286;51.156;17.038;2023-02-23T15:26:52;36.05;;;17.25;;
52354;SDS011;38286;51.156;17.038;2023-02-23T15:29:22;36.00;;;16.08;;
52354;SDS011;38286;51.156;17.038;2023-02-23T15:32:08;30.55;;;16.48;;
52354;SDS011;38286;51.156;17.038;2023-02-23T15:34:38;35.05;;;15.70;;
52354;SDS011;38286;51.156;17.038;2023-02-23T15:37:25;31.40;;;15.50;;
52354;SDS011;38286;51.156;17.038;2023-02-23T15:40:04;29.30;;;15.30;;
52354;SDS011;38286;51.156;17.038;2023-02-23T15:45:02;34.22;;;16.02;;
52354;SDS011;38286;51.156;17.038;2023-02-23T15:47:31;32.65;;;16.50;;
52354;SDS011;38286;51.156;17.038;2023-02-23T15:50:17;34.33;;;16.58;;
52354;SDS011;38286;51.156;17.038;2023-02-23T15:52:52;34.08;;;16.00;;
52354;SDS011;38286;51.156;17.038;2023-02-23T15:55:31;31.65;;;15.45;;
52354;SDS011;38286;51.156;17.038;2023-02-23T15:58:01;33.08;;;16.75;;
52354;SDS011;38286;51.156;17.038;2023-02-23T16:00:41;38.65;;;18.70;;
52354;SDS011;38286;51.156;17.038;2023-02-23T16:03:27;37.35;;;18.38;;
52354;SDS011;38286;51.156;17.038;2023-02-23T16:06:03;32.30;;;16.13;;
52354;SDS011;38286;51.156;17.038;2023-02-23T16:08:31;39.28;;;18.90;;
52354;SDS011;38286;51.156;17.038;2023-02-23T16:11:02;40.85;;;19.77;;
52354;SDS011;38286;51.156;17.038;2023-02-23T16:13:32;36.38;;;19.77;;
52354;SDS011;38286;51.156;17.038;2023-02-23T16:15:57;41.25;;;20.02;;
52354;SDS011;38286;51.156;17.038;2023-02-23T16:18:31;43.78;;;20.45;;
52354;SDS011;38286;51.156;17.038;2023-02-23T16:21:00;44.88;;;21.75;;
52354;SDS011;38286;51.156;17.038;2023-02-23T16:23:28;46.03;;;21.38;;
52354;SDS011;38286;51.156;17.038;2023-02-23T16:25:57;48.50;;;22.58;;
52354;SDS011;38286;51.156;17.038;2023-02-23T16:28:26;46.17;;;23.10;;
52354;SDS011;38286;51.156;17.038;2023-02-23T16:31:00;43.90;;;21.70;;